createdAt,value
2023-02-04T00:00:24.544Z,32.00
2023-02-04T00:04:43.563Z,29.50
2023-02-04T00:08:41.556Z,25.90
2023-02-04T00:12:40.858Z,23.40
2023-02-04T00:16:38.554Z,28.80
2023-02-04T00:20:37.500Z,29.40
2023-02-04T00:24:35.536Z,27.60
2023-02-04T00:28:33.556Z,27.10
2023-02-04T00:32:32.558Z,30.90
2023-02-04T00:36:30.540Z,31.90
2023-02-04T00:40:28.861Z,27.40
2023-02-04T00:44:26.599Z,26.30
2023-02-04T00:48:26.513Z,26.80
2023-02-04T00:52:24.558Z,27.10
2023-02-04T00:56:24.513Z,25.60
2023-02-04T01:00:22.462Z,26.40
2023-02-04T01:04:21.457Z,27.60
2023-02-04T01:08:19.504Z,25.30
2023-02-04T01:12:18.451Z,24.60
2023-02-04T01:16:16.485Z,24.70
2023-02-04T01:20:14.463Z,23.20
2023-02-04T01:24:19.426Z,23.90
2023-02-04T01:28:36.440Z,20.50
2023-02-04T01:32:36.429Z,21.50
2023-02-04T01:36:34.559Z,21.50
2023-02-04T01:40:32.722Z,17.80
2023-02-04T01:44:30.408Z,18.10
2023-02-04T01:48:28.399Z,19.20
2023-02-04T01:52:26.420Z,21.50
2023-02-04T01:56:35.383Z,18.20
2023-02-04T02:00:46.521Z,20.70
2023-02-04T02:04:47.382Z,19.10
2023-02-04T02:08:45.394Z,21.60
2023-02-04T02:12:43.490Z,20.30
2023-02-04T02:16:41.600Z,22.50
2023-02-04T02:20:41.350Z,25.40
2023-02-04T02:24:42.342Z,21.50
2023-02-04T02:28:42.455Z,21.90
2023-02-04T02:32:40.350Z,21.50
2023-02-04T02:36:38.312Z,21.00
2023-02-04T02:40:36.500Z,23.00
2023-02-04T02:44:36.324Z,24.60
2023-02-04T02:48:36.341Z,23.60
2023-02-04T02:52:34.292Z,23.60
2023-02-04T02:56:35.298Z,20.10
2023-02-04T03:00:42.297Z,26.00
2023-02-04T03:04:46.381Z,22.80
2023-02-04T03:08:47.286Z,26.20
2023-02-04T03:12:45.305Z,25.90
2023-02-04T03:16:45.338Z,23.70
2023-02-04T03:20:47.305Z,23.60
2023-02-04T03:24:45.288Z,25.70
2023-02-04T03:28:43.266Z,23.30
2023-02-04T03:32:41.251Z,24.20
2023-02-04T03:36:39.267Z,25.40
2023-02-04T03:40:37.236Z,26.20
2023-02-04T03:44:35.305Z,24.70
2023-02-04T03:48:33.196Z,25.30
2023-02-04T03:52:31.340Z,23.20
2023-02-04T03:56:29.245Z,33.40
2023-02-04T04:00:28.378Z,24.90
2023-02-04T04:04:26.343Z,27.30
2023-02-04T04:08:26.336Z,27.60
2023-02-04T04:12:24.207Z,26.00
2023-02-04T04:16:22.245Z,30.80
2023-02-04T04:20:20.144Z,27.10
2023-02-04T04:24:18.224Z,27.50
2023-02-04T04:28:16.235Z,25.00
2023-02-04T04:32:14.200Z,27.50
2023-02-04T04:36:12.179Z,25.90
2023-02-04T04:40:10.154Z,23.60
2023-02-04T04:44:08.171Z,19.50
2023-02-04T04:48:07.232Z,19.90
2023-02-04T04:52:06.143Z,29.80
2023-02-04T04:56:04.137Z,21.60
2023-02-04T05:00:02.237Z,19.40
2023-02-04T05:04:00.288Z,20.40
2023-02-04T05:07:58.102Z,19.00
2023-02-04T05:11:56.110Z,15.30
2023-02-04T05:15:54.092Z,17.50
2023-02-04T05:19:52.109Z,12.50
2023-02-04T05:23:50.120Z,14.30
2023-02-04T05:27:48.117Z,11.40
2023-02-04T05:31:46.192Z,14.90
2023-02-04T05:35:48.628Z,12.20
2023-02-04T05:39:49.162Z,11.80
2023-02-04T05:43:47.053Z,14.10
2023-02-04T05:47:46.155Z,14.60
2023-02-04T05:51:44.123Z,11.70
2023-02-04T05:55:42.026Z,12.10
2023-02-04T05:59:40.073Z,13.10
2023-02-04T06:03:40.148Z,14.80
2023-02-04T06:07:39.028Z,14.70
2023-02-04T06:11:36.993Z,13.40
2023-02-04T06:15:35.020Z,18.60
2023-02-04T06:19:33.007Z,14.20
2023-02-04T06:23:30.985Z,13.20
2023-02-04T06:27:30.998Z,12.70
2023-02-04T06:31:29.077Z,14.60
2023-02-04T06:35:33.970Z,13.10
2023-02-04T06:39:32.000Z,15.30
2023-02-04T06:43:31.970Z,12.90
2023-02-04T06:47:29.967Z,10.60
2023-02-04T06:51:28.045Z,8.10
2023-02-04T06:55:26.112Z,8.90
2023-02-04T06:59:24.957Z,9.30
2023-02-04T07:03:22.995Z,7.00
2023-02-04T07:07:20.898Z,9.80
2023-02-04T07:11:20.079Z,9.20
2023-02-04T07:15:17.952Z,11.90
2023-02-04T07:19:16.137Z,9.40
2023-02-04T07:23:22.925Z,7.50
2023-02-04T07:27:20.909Z,7.30
2023-02-04T07:31:19.101Z,9.70
2023-02-04T07:35:17.986Z,9.70
2023-02-04T07:39:15.882Z,7.70
2023-02-04T07:43:14.960Z,8.60
2023-02-04T07:47:12.878Z,11.80
2023-02-04T07:51:10.912Z,8.40
2023-02-04T07:55:08.885Z,8.30
2023-02-04T07:59:06.850Z,9.70
2023-02-04T08:03:06.988Z,11.90
2023-02-04T08:07:04.906Z,11.30
2023-02-04T08:11:02.958Z,12.10
2023-02-04T08:15:00.864Z,9.60
2023-02-04T08:18:58.809Z,13.00
2023-02-04T08:22:56.885Z,12.10
2023-02-04T08:26:55.804Z,14.60
2023-02-04T08:30:53.893Z,12.40
2023-02-04T08:34:51.781Z,14.00
2023-02-04T08:38:51.808Z,11.00
2023-02-04T08:42:51.767Z,13.10
2023-02-04T08:46:50.871Z,11.30
2023-02-04T08:50:48.788Z,13.30
2023-02-04T08:54:49.771Z,13.20
2023-02-04T08:58:47.829Z,15.40
2023-02-04T09:02:45.769Z,14.40
2023-02-04T09:06:43.775Z,14.00
2023-02-04T09:10:41.974Z,20.70
2023-02-04T09:14:39.755Z,13.10
2023-02-04T09:18:41.024Z,12.50
2023-02-04T09:22:40.737Z,14.40
2023-02-04T09:26:38.743Z,13.60
2023-02-04T09:30:36.743Z,13.00
2023-02-04T09:34:34.719Z,16.60
2023-02-04T09:38:32.706Z,15.30
2023-02-04T09:42:30.756Z,15.00
2023-02-04T09:46:36.677Z,14.30
2023-02-04T09:50:39.721Z,15.50
2023-02-04T09:54:39.727Z,9.80
2023-02-04T09:58:38.759Z,9.80
2023-02-04T10:02:41.698Z,14.50
2023-02-04T10:06:39.710Z,14.20
2023-02-04T10:10:39.651Z,15.50
2023-02-04T10:14:39.694Z,11.90
2023-02-04T10:18:43.605Z,12.60
2023-02-04T10:22:41.627Z,11.00
2023-02-04T10:26:43.591Z,9.90
2023-02-04T10:30:43.825Z,10.50
2023-02-04T10:34:49.694Z,7.10
2023-02-04T10:38:47.674Z,7.60
2023-02-04T10:42:46.680Z,6.50
2023-02-04T10:46:46.652Z,10.00
2023-02-04T10:50:44.613Z,6.30
2023-02-04T10:54:52.622Z,11.90
2023-02-04T10:58:53.652Z,10.10
2023-02-04T11:03:18.644Z,10.50
2023-02-04T11:07:09.774Z,8.10
2023-02-04T11:11:16.648Z,10.30
2023-02-04T11:15:14.579Z,7.90
2023-02-04T11:19:16.740Z,9.90
2023-02-04T11:23:49.617Z,5.40
2023-02-04T11:27:56.750Z,5.00
2023-02-04T11:31:58.713Z,4.70
2023-02-04T11:36:15.553Z,4.30
2023-02-04T11:40:14.638Z,5.20
2023-02-04T11:44:12.524Z,4.80
2023-02-04T11:48:13.547Z,3.50
2023-02-04T11:52:22.522Z,3.60
2023-02-04T11:56:20.498Z,3.90
2023-02-04T12:00:21.521Z,3.20
2023-02-04T12:04:22.459Z,7.20
2023-02-04T12:08:45.494Z,4.70
2023-02-04T12:12:45.509Z,5.30
2023-02-04T12:16:43.584Z,4.30
2023-02-04T12:20:43.468Z,5.90
2023-02-04T12:24:41.541Z,7.90
2023-02-04T12:28:40.481Z,4.70
2023-02-04T12:32:39.626Z,5.30
2023-02-04T12:36:37.502Z,7.20
2023-02-04T12:40:36.506Z,6.30
2023-02-04T12:44:34.483Z,7.60
2023-02-04T12:48:32.531Z,8.10
2023-02-04T12:52:31.464Z,8.00
2023-02-04T12:56:30.429Z,7.50
2023-02-04T13:00:30.433Z,8.40
2023-02-04T13:04:28.421Z,7.50
2023-02-04T13:08:27.390Z,7.80
2023-02-04T13:12:25.412Z,7.30
2023-02-04T13:16:29.454Z,6.00
2023-02-04T13:20:27.557Z,8.40
2023-02-04T13:24:25.438Z,8.40
2023-02-04T13:28:25.510Z,8.30
2023-02-04T13:32:23.549Z,8.70
2023-02-04T13:36:23.477Z,9.30
2023-02-04T13:40:22.326Z,13.00
2023-02-04T13:44:20.450Z,11.50
2023-02-04T13:48:19.327Z,9.90
2023-02-04T13:52:18.494Z,11.70
2023-02-04T13:56:18.381Z,11.20
2023-02-04T14:00:20.363Z,9.80
2023-02-04T14:04:18.374Z,9.20
2023-02-04T14:08:17.440Z,12.70
2023-02-04T14:12:15.315Z,8.40
2023-02-04T14:16:15.476Z,6.60
2023-02-04T14:20:16.337Z,10.30
2023-02-04T14:24:16.381Z,5.40
2023-02-04T14:28:14.345Z,7.00
2023-02-04T14:32:12.375Z,10.50
2023-02-04T14:36:10.358Z,9.60
2023-02-04T14:40:10.296Z,6.90
2023-02-04T14:44:10.297Z,8.60
2023-02-04T14:48:11.224Z,7.40
2023-02-04T14:52:12.609Z,8.20
2023-02-04T14:56:12.332Z,11.40
2023-02-04T15:00:10.260Z,8.30
2023-02-04T15:04:08.706Z,6.90
2023-02-04T15:08:07.304Z,8.90
2023-02-04T15:11:44.906Z,10.10
2023-02-04T15:15:11.459Z,9.10
2023-02-04T15:18:40.541Z,9.60
2023-02-04T15:22:04.726Z,9.20
2023-02-04T15:25:28.756Z,7.70
2023-02-04T15:28:53.298Z,12.80
2023-02-04T15:32:17.484Z,12.70
2023-02-04T15:35:41.364Z,12.70
2023-02-04T15:39:06.818Z,8.70
2023-02-04T15:42:30.861Z,12.10
2023-02-04T15:49:21.998Z,10.80
2023-02-04T15:52:46.721Z,9.30
2023-02-04T15:56:11.106Z,11.90
2023-02-04T15:59:35.256Z,11.20
2023-02-04T16:02:59.314Z,15.10
2023-02-04T16:06:32.184Z,10.00
2023-02-04T16:09:56.351Z,13.50
2023-02-04T16:13:22.683Z,14.30
2023-02-04T16:16:46.780Z,12.40
2023-02-04T16:20:13.247Z,12.20
2023-02-04T16:23:37.098Z,15.20
2023-02-04T16:27:01.178Z,11.80
2023-02-04T16:30:25.147Z,12.10
2023-02-04T16:33:49.028Z,14.90
2023-02-04T16:37:16.189Z,19.30
2023-02-04T16:40:40.245Z,14.10
2023-02-04T16:44:04.144Z,18.50
2023-02-04T16:47:28.131Z,13.40
2023-02-04T16:50:53.952Z,16.80
2023-02-04T16:54:18.234Z,13.10
2023-02-04T16:57:46.797Z,11.50
2023-02-04T17:01:11.232Z,16.90
2023-02-04T17:04:37.883Z,12.60
2023-02-04T17:08:01.795Z,12.60
2023-02-04T17:11:31.848Z,14.00
2023-02-04T17:14:56.295Z,12.60
2023-02-04T17:18:22.664Z,12.70
2023-02-04T17:21:46.910Z,14.20
2023-02-04T17:25:10.975Z,12.90
2023-02-04T17:28:35.359Z,14.60
2023-02-04T17:31:59.270Z,17.40
2023-02-04T17:35:26.436Z,21.30
2023-02-04T17:38:50.593Z,15.80
2023-02-04T17:42:17.537Z,14.50
2023-02-04T17:45:44.596Z,14.10
2023-02-04T17:49:09.693Z,19.50
2023-02-04T17:52:35.542Z,19.00
2023-02-04T17:55:59.537Z,18.80
2023-02-04T17:59:23.976Z,15.80
2023-02-04T18:02:49.819Z,17.60
2023-02-04T18:06:19.424Z,18.40
2023-02-04T18:09:43.351Z,20.70
2023-02-04T18:13:36.742Z,18.70
2023-02-04T18:17:01.901Z,13.10
2023-02-04T18:20:32.646Z,17.50
2023-02-04T18:24:19.040Z,20.00
2023-02-04T18:27:43.150Z,19.10
2023-02-04T18:31:26.170Z,20.80
2023-02-04T18:34:57.522Z,19.60
2023-02-04T18:38:32.405Z,20.60
2023-02-04T18:41:57.562Z,16.40
2023-02-04T18:45:28.567Z,14.30
2023-02-04T18:49:06.152Z,15.10
2023-02-04T18:52:37.904Z,14.30
2023-02-04T18:56:02.693Z,18.70
2023-02-04T18:59:29.056Z,15.60
2023-02-04T19:03:07.670Z,14.30
2023-02-04T19:06:41.379Z,15.40
2023-02-04T19:10:27.989Z,16.60
2023-02-04T19:13:58.392Z,22.50
2023-02-04T19:17:37.348Z,15.20
2023-02-04T19:21:20.517Z,20.40
2023-02-04T19:24:44.553Z,17.90
2023-02-04T19:28:25.881Z,17.20
2023-02-04T19:31:57.131Z,17.20
2023-02-04T19:35:23.611Z,22.90
2023-02-04T19:38:53.210Z,23.40
2023-02-04T19:42:26.224Z,21.20
2023-02-04T19:45:52.327Z,20.00
2023-02-04T19:49:26.742Z,24.10
2023-02-04T19:52:56.216Z,18.10
2023-02-04T19:56:40.933Z,16.70
2023-02-04T20:00:36.100Z,21.40
2023-02-04T20:04:04.337Z,15.50
2023-02-04T20:07:29.971Z,17.80
2023-02-04T20:10:54.892Z,18.80
2023-02-04T20:14:24.022Z,18.50
2023-02-04T20:17:52.262Z,21.00
2023-02-04T20:21:16.689Z,19.00
2023-02-04T20:24:56.516Z,19.50
2023-02-04T20:28:23.569Z,22.50
2023-02-04T20:31:50.286Z,17.60
2023-02-04T20:35:14.375Z,19.00
2023-02-04T20:38:38.583Z,19.90
2023-02-04T20:42:44.205Z,20.60
2023-02-04T20:46:08.758Z,16.60
2023-02-04T20:49:42.906Z,16.80
2023-02-04T20:53:17.260Z,18.10
2023-02-04T20:56:44.000Z,18.70
2023-02-04T21:00:15.435Z,17.70
2023-02-04T21:03:40.126Z,16.40
2023-02-04T21:10:40.728Z,23.10
2023-02-04T21:14:04.850Z,18.50
2023-02-04T21:17:28.773Z,18.10
2023-02-04T21:20:53.006Z,18.00
2023-02-04T21:24:17.466Z,18.60
2023-02-04T21:27:41.429Z,19.40
2023-02-04T21:31:05.419Z,17.50
2023-02-04T21:34:29.659Z,17.40
2023-02-04T21:37:54.895Z,15.80
2023-02-04T21:41:20.773Z,18.80
2023-02-04T21:44:45.069Z,16.40
2023-02-04T21:48:09.251Z,17.50
2023-02-04T21:51:33.233Z,17.10
2023-02-04T21:55:00.228Z,14.50
2023-02-04T21:58:24.271Z,13.90
2023-02-04T22:01:49.594Z,15.80
2023-02-04T22:05:14.858Z,15.40
2023-02-04T22:08:38.772Z,16.20
2023-02-04T22:12:06.030Z,19.60
2023-02-04T22:15:32.202Z,14.60
2023-02-04T22:19:02.915Z,17.30
2023-02-04T22:22:26.792Z,16.50
2023-02-04T22:25:51.082Z,16.40
2023-02-04T22:29:19.425Z,15.40
2023-02-04T22:32:43.700Z,18.10
2023-02-04T22:36:07.954Z,15.30
2023-02-04T22:39:32.370Z,16.70
2023-02-04T22:42:56.205Z,16.10
2023-02-04T22:46:20.149Z,16.80
2023-02-04T22:49:46.744Z,20.40
2023-02-04T22:53:10.625Z,16.50
2023-02-04T22:56:37.764Z,22.20
2023-02-04T23:00:01.612Z,15.40
2023-02-04T23:03:25.928Z,16.20
2023-02-04T23:06:53.427Z,17.70
2023-02-04T23:10:17.481Z,16.40
2023-02-04T23:13:41.336Z,15.90
2023-02-04T23:20:31.261Z,12.60
2023-02-04T23:23:55.606Z,15.40
2023-02-04T23:27:19.577Z,14.80
2023-02-04T23:30:46.531Z,13.90
2023-02-04T23:34:10.479Z,13.10
2023-02-04T23:37:35.971Z,13.70
2023-02-04T23:41:01.411Z,10.20
2023-02-04T23:44:25.556Z,10.50
2023-02-04T23:48:09.475Z,12.70
2023-02-04T23:52:08.552Z,10.70
2023-02-04T23:56:06.520Z,7.50
